sensor_id;sensor_type;location;lat;lon;timestamp;temperature;humidity
58469;DHT22;44257;44.804;10.220;2023-03-12T00:00:34;9.10;99.90
58469;DHT22;44257;44.804;10.220;2023-03-12T00:03:00;9.00;99.90
58469;DHT22;44257;44.804;10.220;2023-03-12T00:05:26;9.00;99.90
58469;DHT22;44257;44.804;10.220;2023-03-12T00:07:52;9.00;99.90
58469;DHT22;44257;44.804;10.220;2023-03-12T00:10:19;9.00;99.90
58469;DHT22;44257;44.804;10.220;2023-03-12T00:12:46;9.00;99.90
58469;DHT22;44257;44.804;10.220;2023-03-12T00:15:12;8.90;99.90
58469;DHT22;44257;44.804;10.220;2023-03-12T00:17:37;8.70;99.90
58469;DHT22;44257;44.804;10.220;2023-03-12T00:20:04;8.70;99.90
58469;DHT22;44257;44.804;10.220;2023-03-12T00:22:32;8.60;99.90
58469;DHT22;44257;44.804;10.220;2023-03-12T00:24:58;8.60;99.90
58469;DHT22;44257;44.804;10.220;2023-03-12T00:27:25;8.50;99.90
58469;DHT22;44257;44.804;10.220;2023-03-12T00:29:51;8.50;99.90
58469;DHT22;44257;44.804;10.220;2023-03-12T00:32:17;8.50;99.90
58469;DHT22;44257;44.804;10.220;2023-03-12T00:34:48;8.40;99.90
58469;DHT22;44257;44.804;10.220;2023-03-12T00:37:14;8.30;99.90
58469;DHT22;44257;44.804;10.220;2023-03-12T00:39:40;8.20;99.90
58469;DHT22;44257;44.804;10.220;2023-03-12T00:42:06;8.20;99.90
58469;DHT22;44257;44.804;10.220;2023-03-12T00:44:32;8.20;99.90
58469;DHT22;44257;44.804;10.220;2023-03-12T00:46:58;8.00;99.90
58469;DHT22;44257;44.804;10.220;2023-03-12T00:49:24;7.90;99.90
58469;DHT22;44257;44.804;10.220;2023-03-12T00:51:50;7.80;99.90
58469;DHT22;44257;44.804;10.220;2023-03-12T00:54:17;7.80;99.90
58469;DHT22;44257;44.804;10.220;2023-03-12T00:56:43;7.70;99.90
58469;DHT22;44257;44.804;10.220;2023-03-12T00:59:13;7.80;99.90
58469;DHT22;44257;44.804;10.220;2023-03-12T01:01:39;7.90;99.90
58469;DHT22;44257;44.804;10.220;2023-03-12T01:04:05;7.90;99.90
58469;DHT22;44257;44.804;10.220;2023-03-12T01:06:31;7.90;99.90
58469;DHT22;44257;44.804;10.220;2023-03-12T01:08:57;7.90;99.90
58469;DHT22;44257;44.804;10.220;2023-03-12T01:11:23;7.90;99.90
58469;DHT22;44257;44.804;10.220;2023-03-12T01:13:49;7.80;99.90
58469;DHT22;44257;44.804;10.220;2023-03-12T01:16:16;7.70;99.90
58469;DHT22;44257;44.804;10.220;2023-03-12T01:18:42;7.60;99.90
58469;DHT22;44257;44.804;10.220;2023-03-12T01:21:09;7.50;99.90
58469;DHT22;44257;44.804;10.220;2023-03-12T01:23:36;7.50;99.90
58469;DHT22;44257;44.804;10.220;2023-03-12T01:26:02;7.50;99.90
58469;DHT22;44257;44.804;10.220;2023-03-12T01:28:28;7.40;99.90
58469;DHT22;44257;44.804;10.220;2023-03-12T01:30:53;7.40;99.90
58469;DHT22;44257;44.804;10.220;2023-03-12T01:33:20;7.30;99.90
58469;DHT22;44257;44.804;10.220;2023-03-12T01:35:47;7.50;99.90
58469;DHT22;44257;44.804;10.220;2023-03-12T01:38:14;7.50;99.90
58469;DHT22;44257;44.804;10.220;2023-03-12T01:40:41;7.40;99.90
58469;DHT22;44257;44.804;10.220;2023-03-12T01:43:24;7.20;99.90
58469;DHT22;44257;44.804;10.220;2023-03-12T01:46:27;7.20;99.90
58469;DHT22;44257;44.804;10.220;2023-03-12T01:49:06;7.10;99.90
58469;DHT22;44257;44.804;10.220;2023-03-12T01:56:49;6.90;99.90
58469;DHT22;44257;44.804;10.220;2023-03-12T01:59:20;6.80;99.90
58469;DHT22;44257;44.804;10.220;2023-03-12T02:01:48;6.80;99.90
58469;DHT22;44257;44.804;10.220;2023-03-12T02:04:17;6.80;99.90
58469;DHT22;44257;44.804;10.220;2023-03-12T02:06:49;6.90;99.90
58469;DHT22;44257;44.804;10.220;2023-03-12T02:09:18;6.90;99.90
58469;DHT22;44257;44.804;10.220;2023-03-12T02:11:46;6.90;99.90
58469;DHT22;44257;44.804;10.220;2023-03-12T02:14:12;6.70;99.90
58469;DHT22;44257;44.804;10.220;2023-03-12T02:16:38;6.60;99.90
58469;DHT22;44257;44.804;10.220;2023-03-12T02:19:10;6.50;99.90
58469;DHT22;44257;44.804;10.220;2023-03-12T02:21:37;6.40;99.90
58469;DHT22;44257;44.804;10.220;2023-03-12T02:26:37;6.40;99.90
58469;DHT22;44257;44.804;10.220;2023-03-12T02:29:04;6.30;99.90
58469;DHT22;44257;44.804;10.220;2023-03-12T02:31:39;6.20;99.90
58469;DHT22;44257;44.804;10.220;2023-03-12T02:34:07;6.20;99.90
58469;DHT22;44257;44.804;10.220;2023-03-12T02:36:35;6.20;99.90
58469;DHT22;44257;44.804;10.220;2023-03-12T02:39:01;6.30;99.90
58469;DHT22;44257;44.804;10.220;2023-03-12T02:41:40;6.30;99.90
58469;DHT22;44257;44.804;10.220;2023-03-12T02:44:11;6.20;99.90
58469;DHT22;44257;44.804;10.220;2023-03-12T02:46:44;6.20;99.90
58469;DHT22;44257;44.804;10.220;2023-03-12T02:49:11;6.10;99.90
58469;DHT22;44257;44.804;10.220;2023-03-12T02:51:39;6.00;99.90
58469;DHT22;44257;44.804;10.220;2023-03-12T02:54:06;6.00;99.90
58469;DHT22;44257;44.804;10.220;2023-03-12T02:56:32;5.90;99.90
58469;DHT22;44257;44.804;10.220;2023-03-12T02:58:58;5.90;99.90
58469;DHT22;44257;44.804;10.220;2023-03-12T03:01:24;5.80;99.90
58469;DHT22;44257;44.804;10.220;2023-03-12T03:03:50;5.70;99.90
58469;DHT22;44257;44.804;10.220;2023-03-12T03:06:16;5.70;99.90
58469;DHT22;44257;44.804;10.220;2023-03-12T03:08:43;5.70;99.90
58469;DHT22;44257;44.804;10.220;2023-03-12T03:11:08;5.80;99.90
58469;DHT22;44257;44.804;10.220;2023-03-12T03:13:34;5.80;99.90
58469;DHT22;44257;44.804;10.220;2023-03-12T03:16:00;5.70;99.90
58469;DHT22;44257;44.804;10.220;2023-03-12T03:18:29;5.60;99.90
58469;DHT22;44257;44.804;10.220;2023-03-12T03:21:01;5.60;99.90
58469;DHT22;44257;44.804;10.220;2023-03-12T03:23:29;5.60;99.90
58469;DHT22;44257;44.804;10.220;2023-03-12T03:25:55;5.60;99.90
58469;DHT22;44257;44.804;10.220;2023-03-12T03:28:23;5.50;99.90
58469;DHT22;44257;44.804;10.220;2023-03-12T03:30:53;5.40;99.90
58469;DHT22;44257;44.804;10.220;2023-03-12T03:33:20;5.40;99.90
58469;DHT22;44257;44.804;10.220;2023-03-12T03:35:47;5.50;99.90
58469;DHT22;44257;44.804;10.220;2023-03-12T03:38:13;5.50;99.90
58469;DHT22;44257;44.804;10.220;2023-03-12T03:40:39;5.50;99.90
58469;DHT22;44257;44.804;10.220;2023-03-12T03:43:05;5.60;99.90
58469;DHT22;44257;44.804;10.220;2023-03-12T03:45:30;5.90;99.90
58469;DHT22;44257;44.804;10.220;2023-03-12T03:47:56;6.00;99.90
58469;DHT22;44257;44.804;10.220;2023-03-12T03:50:22;6.20;99.90
58469;DHT22;44257;44.804;10.220;2023-03-12T03:52:48;6.30;99.90
58469;DHT22;44257;44.804;10.220;2023-03-12T03:55:15;6.50;99.90
58469;DHT22;44257;44.804;10.220;2023-03-12T03:57:40;6.70;99.90
58469;DHT22;44257;44.804;10.220;2023-03-12T04:00:08;6.80;99.90
58469;DHT22;44257;44.804;10.220;2023-03-12T04:02:40;7.00;99.90
58469;DHT22;44257;44.804;10.220;2023-03-12T04:05:09;7.10;99.90
58469;DHT22;44257;44.804;10.220;2023-03-12T04:07:35;7.20;99.90
58469;DHT22;44257;44.804;10.220;2023-03-12T04:10:03;7.30;99.90
58469;DHT22;44257;44.804;10.220;2023-03-12T04:12:29;7.40;99.90
58469;DHT22;44257;44.804;10.220;2023-03-12T04:14:55;7.60;99.90
58469;DHT22;44257;44.804;10.220;2023-03-12T04:17:21;7.70;99.90
58469;DHT22;44257;44.804;10.220;2023-03-12T04:19:47;7.80;99.90
58469;DHT22;44257;44.804;10.220;2023-03-12T04:22:13;8.00;99.90
58469;DHT22;44257;44.804;10.220;2023-03-12T04:24:39;8.10;99.90
58469;DHT22;44257;44.804;10.220;2023-03-12T04:27:05;8.20;99.90
58469;DHT22;44257;44.804;10.220;2023-03-12T04:29:32;8.30;99.90
58469;DHT22;44257;44.804;10.220;2023-03-12T04:31:58;8.50;99.90
58469;DHT22;44257;44.804;10.220;2023-03-12T04:34:24;8.60;99.90
58469;DHT22;44257;44.804;10.220;2023-03-12T04:36:52;8.70;99.90
58469;DHT22;44257;44.804;10.220;2023-03-12T04:39:18;8.70;99.90
58469;DHT22;44257;44.804;10.220;2023-03-12T04:41:46;8.70;99.90
58469;DHT22;44257;44.804;10.220;2023-03-12T04:44:14;8.80;99.90
58469;DHT22;44257;44.804;10.220;2023-03-12T04:46:41;8.90;99.90
58469;DHT22;44257;44.804;10.220;2023-03-12T04:49:10;8.90;99.90
58469;DHT22;44257;44.804;10.220;2023-03-12T04:51:37;9.00;99.90
58469;DHT22;44257;44.804;10.220;2023-03-12T04:54:04;9.10;99.90
58469;DHT22;44257;44.804;10.220;2023-03-12T04:56:31;9.00;99.90
58469;DHT22;44257;44.804;10.220;2023-03-12T04:58:57;9.10;99.90
58469;DHT22;44257;44.804;10.220;2023-03-12T05:01:31;9.10;99.90
58469;DHT22;44257;44.804;10.220;2023-03-12T05:03:58;9.20;99.90
58469;DHT22;44257;44.804;10.220;2023-03-12T05:06:24;9.10;99.90
58469;DHT22;44257;44.804;10.220;2023-03-12T05:08:51;9.10;99.90
58469;DHT22;44257;44.804;10.220;2023-03-12T05:11:18;9.10;99.90
58469;DHT22;44257;44.804;10.220;2023-03-12T05:13:44;9.10;99.90
58469;DHT22;44257;44.804;10.220;2023-03-12T05:16:11;9.20;99.90
58469;DHT22;44257;44.804;10.220;2023-03-12T05:18:38;9.20;99.90
58469;DHT22;44257;44.804;10.220;2023-03-12T05:21:06;9.20;99.90
58469;DHT22;44257;44.804;10.220;2023-03-12T05:23:33;9.20;99.90
58469;DHT22;44257;44.804;10.220;2023-03-12T05:25:59;9.20;99.90
58469;DHT22;44257;44.804;10.220;2023-03-12T05:28:27;9.20;99.90
58469;DHT22;44257;44.804;10.220;2023-03-12T05:30:56;9.20;99.90
58469;DHT22;44257;44.804;10.220;2023-03-12T05:33:23;9.20;99.90
58469;DHT22;44257;44.804;10.220;2023-03-12T05:35:50;9.20;99.90
58469;DHT22;44257;44.804;10.220;2023-03-12T05:38:16;9.20;99.90
58469;DHT22;44257;44.804;10.220;2023-03-12T05:40:42;9.20;99.90
58469;DHT22;44257;44.804;10.220;2023-03-12T05:43:08;9.30;99.90
58469;DHT22;44257;44.804;10.220;2023-03-12T05:45:34;9.30;99.90
58469;DHT22;44257;44.804;10.220;2023-03-12T05:48:00;9.30;99.90
58469;DHT22;44257;44.804;10.220;2023-03-12T05:50:28;9.30;99.90
58469;DHT22;44257;44.804;10.220;2023-03-12T05:52:53;9.20;99.90
58469;DHT22;44257;44.804;10.220;2023-03-12T05:55:19;9.30;99.90
58469;DHT22;44257;44.804;10.220;2023-03-12T05:57:46;9.30;99.90
58469;DHT22;44257;44.804;10.220;2023-03-12T06:00:13;9.40;99.90
58469;DHT22;44257;44.804;10.220;2023-03-12T06:02:42;9.40;99.90
58469;DHT22;44257;44.804;10.220;2023-03-12T06:05:10;9.40;99.90
58469;DHT22;44257;44.804;10.220;2023-03-12T06:07:36;9.40;99.90
58469;DHT22;44257;44.804;10.220;2023-03-12T06:10:02;9.40;99.90
58469;DHT22;44257;44.804;10.220;2023-03-12T06:12:28;9.40;99.90
58469;DHT22;44257;44.804;10.220;2023-03-12T06:14:56;9.40;99.90
58469;DHT22;44257;44.804;10.220;2023-03-12T06:17:21;9.50;99.90
58469;DHT22;44257;44.804;10.220;2023-03-12T06:19:50;9.50;99.90
58469;DHT22;44257;44.804;10.220;2023-03-12T06:22:18;9.50;99.90
58469;DHT22;44257;44.804;10.220;2023-03-12T06:24:44;9.50;99.90
58469;DHT22;44257;44.804;10.220;2023-03-12T06:27:14;9.60;99.90
58469;DHT22;44257;44.804;10.220;2023-03-12T06:29:41;9.60;99.90
58469;DHT22;44257;44.804;10.220;2023-03-12T06:32:07;9.70;99.90
58469;DHT22;44257;44.804;10.220;2023-03-12T06:34:33;9.70;99.90
58469;DHT22;44257;44.804;10.220;2023-03-12T06:36:59;9.80;99.90
58469;DHT22;44257;44.804;10.220;2023-03-12T06:39:25;9.80;99.90
58469;DHT22;44257;44.804;10.220;2023-03-12T06:41:51;9.90;99.90
58469;DHT22;44257;44.804;10.220;2023-03-12T06:44:17;10.00;99.90
58469;DHT22;44257;44.804;10.220;2023-03-12T06:46:43;10.10;99.90
58469;DHT22;44257;44.804;10.220;2023-03-12T06:49:10;10.20;99.90
58469;DHT22;44257;44.804;10.220;2023-03-12T06:51:36;10.20;99.90
58469;DHT22;44257;44.804;10.220;2023-03-12T06:54:02;10.20;99.90
58469;DHT22;44257;44.804;10.220;2023-03-12T06:56:29;10.20;99.90
58469;DHT22;44257;44.804;10.220;2023-03-12T06:58:55;10.20;99.90
58469;DHT22;44257;44.804;10.220;2023-03-12T07:01:21;10.20;99.90
58469;DHT22;44257;44.804;10.220;2023-03-12T07:03:47;10.20;99.90
58469;DHT22;44257;44.804;10.220;2023-03-12T07:06:19;10.30;99.90
58469;DHT22;44257;44.804;10.220;2023-03-12T07:08:45;10.30;99.90
58469;DHT22;44257;44.804;10.220;2023-03-12T07:11:11;10.40;99.90
58469;DHT22;44257;44.804;10.220;2023-03-12T07:13:38;10.40;99.90
58469;DHT22;44257;44.804;10.220;2023-03-12T07:16:04;10.50;99.90
58469;DHT22;44257;44.804;10.220;2023-03-12T07:18:30;10.50;99.90
58469;DHT22;44257;44.804;10.220;2023-03-12T07:20:56;10.60;99.90
58469;DHT22;44257;44.804;10.220;2023-03-12T07:23:22;10.60;99.90
58469;DHT22;44257;44.804;10.220;2023-03-12T07:25:49;10.70;99.90
58469;DHT22;44257;44.804;10.220;2023-03-12T07:28:16;10.90;99.90
58469;DHT22;44257;44.804;10.220;2023-03-12T07:30:42;10.90;99.90
58469;DHT22;44257;44.804;10.220;2023-03-12T07:33:16;11.00;99.90
58469;DHT22;44257;44.804;10.220;2023-03-12T07:35:42;11.10;99.90
58469;DHT22;44257;44.804;10.220;2023-03-12T07:38:08;11.10;99.90
58469;DHT22;44257;44.804;10.220;2023-03-12T07:40:35;11.20;99.90
58469;DHT22;44257;44.804;10.220;2023-03-12T07:43:01;11.20;99.90
58469;DHT22;44257;44.804;10.220;2023-03-12T07:45:31;11.20;99.90
58469;DHT22;44257;44.804;10.220;2023-03-12T07:47:56;11.30;99.90
58469;DHT22;44257;44.804;10.220;2023-03-12T07:50:23;11.30;99.90
58469;DHT22;44257;44.804;10.220;2023-03-12T07:52:48;11.40;99.90
58469;DHT22;44257;44.804;10.220;2023-03-12T07:55:14;11.50;99.90
58469;DHT22;44257;44.804;10.220;2023-03-12T07:57:40;11.60;99.90
58469;DHT22;44257;44.804;10.220;2023-03-12T08:00:07;11.70;99.90
58469;DHT22;44257;44.804;10.220;2023-03-12T08:02:37;11.80;99.90
58469;DHT22;44257;44.804;10.220;2023-03-12T08:05:04;11.90;99.90
58469;DHT22;44257;44.804;10.220;2023-03-12T08:07:30;12.00;99.90
58469;DHT22;44257;44.804;10.220;2023-03-12T08:10:01;12.10;99.90
58469;DHT22;44257;44.804;10.220;2023-03-12T08:12:27;12.20;99.90
58469;DHT22;44257;44.804;10.220;2023-03-12T08:14:53;12.20;99.90
58469;DHT22;44257;44.804;10.220;2023-03-12T08:17:19;12.30;99.90
58469;DHT22;44257;44.804;10.220;2023-03-12T08:19:45;12.40;99.90
58469;DHT22;44257;44.804;10.220;2023-03-12T08:22:11;12.50;99.90
58469;DHT22;44257;44.804;10.220;2023-03-12T08:24:37;12.60;99.90
58469;DHT22;44257;44.804;10.220;2023-03-12T08:27:02;12.70;99.90
58469;DHT22;44257;44.804;10.220;2023-03-12T08:29:28;12.80;99.90
58469;DHT22;44257;44.804;10.220;2023-03-12T08:31:55;12.90;99.90
58469;DHT22;44257;44.804;10.220;2023-03-12T08:34:20;12.90;99.90
58469;DHT22;44257;44.804;10.220;2023-03-12T08:36:46;13.00;99.90
58469;DHT22;44257;44.804;10.220;2023-03-12T08:39:12;13.00;99.90
58469;DHT22;44257;44.804;10.220;2023-03-12T08:41:38;13.10;99.90
58469;DHT22;44257;44.804;10.220;2023-03-12T08:44:04;13.30;99.90
58469;DHT22;44257;44.804;10.220;2023-03-12T08:46:29;13.40;99.90
58469;DHT22;44257;44.804;10.220;2023-03-12T08:48:55;13.50;99.90
58469;DHT22;44257;44.804;10.220;2023-03-12T08:51:21;13.60;99.90
58469;DHT22;44257;44.804;10.220;2023-03-12T08:53:47;13.60;99.90
58469;DHT22;44257;44.804;10.220;2023-03-12T08:56:13;13.70;99.90
58469;DHT22;44257;44.804;10.220;2023-03-12T08:58:39;13.70;99.90
58469;DHT22;44257;44.804;10.220;2023-03-12T09:01:11;13.70;99.90
58469;DHT22;44257;44.804;10.220;2023-03-12T09:03:38;13.90;99.90
58469;DHT22;44257;44.804;10.220;2023-03-12T09:06:08;14.00;99.90
58469;DHT22;44257;44.804;10.220;2023-03-12T09:08:38;14.10;99.90
58469;DHT22;44257;44.804;10.220;2023-03-12T09:11:05;14.20;99.90
58469;DHT22;44257;44.804;10.220;2023-03-12T09:13:31;14.30;99.90
58469;DHT22;44257;44.804;10.220;2023-03-12T09:16:03;14.40;99.90
58469;DHT22;44257;44.804;10.220;2023-03-12T09:18:30;14.50;99.90
58469;DHT22;44257;44.804;10.220;2023-03-12T09:20:56;14.60;99.90
58469;DHT22;44257;44.804;10.220;2023-03-12T09:23:23;14.60;99.90
58469;DHT22;44257;44.804;10.220;2023-03-12T09:25:49;14.70;99.90
58469;DHT22;44257;44.804;10.220;2023-03-12T09:28:15;14.80;99.90
58469;DHT22;44257;44.804;10.220;2023-03-12T09:30:41;14.80;99.90
58469;DHT22;44257;44.804;10.220;2023-03-12T09:33:07;14.80;99.90
58469;DHT22;44257;44.804;10.220;2023-03-12T09:35:33;14.90;99.90
58469;DHT22;44257;44.804;10.220;2023-03-12T09:37:59;14.90;99.90
58469;DHT22;44257;44.804;10.220;2023-03-12T09:40:29;15.00;99.90
58469;DHT22;44257;44.804;10.220;2023-03-12T09:43:09;15.10;99.90
58469;DHT22;44257;44.804;10.220;2023-03-12T09:45:39;15.30;99.90
58469;DHT22;44257;44.804;10.220;2023-03-12T09:48:17;15.30;99.90
58469;DHT22;44257;44.804;10.220;2023-03-12T09:50:47;15.40;99.90
58469;DHT22;44257;44.804;10.220;2023-03-12T09:53:41;15.30;99.90
58469;DHT22;44257;44.804;10.220;2023-03-12T09:56:16;15.40;99.90
58469;DHT22;44257;44.804;10.220;2023-03-12T09:58:44;15.40;99.90
58469;DHT22;44257;44.804;10.220;2023-03-12T10:09:41;15.60;99.90
58469;DHT22;44257;44.804;10.220;2023-03-12T10:12:46;15.70;99.90
58469;DHT22;44257;44.804;10.220;2023-03-12T10:29:03;15.50;99.90
58469;DHT22;44257;44.804;10.220;2023-03-12T10:31:40;15.40;99.90
58469;DHT22;44257;44.804;10.220;2023-03-12T10:35:12;15.40;99.90
58469;DHT22;44257;44.804;10.220;2023-03-12T10:37:20;15.50;99.90
58469;DHT22;44257;44.804;10.220;2023-03-12T10:39:47;15.70;99.90
58469;DHT22;44257;44.804;10.220;2023-03-12T10:42:18;15.80;99.90
58469;DHT22;44257;44.804;10.220;2023-03-12T10:44:47;16.00;99.90
58469;DHT22;44257;44.804;10.220;2023-03-12T10:47:31;16.20;99.90
58469;DHT22;44257;44.804;10.220;2023-03-12T10:50:23;16.10;99.90
58469;DHT22;44257;44.804;10.220;2023-03-12T10:52:51;16.00;99.90
58469;DHT22;44257;44.804;10.220;2023-03-12T10:55:27;15.90;99.90
58469;DHT22;44257;44.804;10.220;2023-03-12T10:57:55;15.90;99.90
58469;DHT22;44257;44.804;10.220;2023-03-12T11:02:57;15.90;99.90
58469;DHT22;44257;44.804;10.220;2023-03-12T11:05:28;15.80;99.90
58469;DHT22;44257;44.804;10.220;2023-03-12T11:07:55;15.70;99.90
58469;DHT22;44257;44.804;10.220;2023-03-12T11:10:24;15.80;99.90
58469;DHT22;44257;44.804;10.220;2023-03-12T11:15:57;16.20;99.90
58469;DHT22;44257;44.804;10.220;2023-03-12T11:18:30;16.30;99.90
58469;DHT22;44257;44.804;10.220;2023-03-12T11:21:12;16.40;99.90
58469;DHT22;44257;44.804;10.220;2023-03-12T11:24:04;16.50;99.90
58469;DHT22;44257;44.804;10.220;2023-03-12T11:29:28;16.70;99.90
58469;DHT22;44257;44.804;10.220;2023-03-12T11:34:37;16.80;99.90
58469;DHT22;44257;44.804;10.220;2023-03-12T11:45:13;16.80;99.90
58469;DHT22;44257;44.804;10.220;2023-03-12T12:01:08;16.90;99.90
58469;DHT22;44257;44.804;10.220;2023-03-12T12:04:03;16.90;99.90
58469;DHT22;44257;44.804;10.220;2023-03-12T12:11:54;16.90;99.90
58469;DHT22;44257;44.804;10.220;2023-03-12T12:17:43;16.90;99.90
58469;DHT22;44257;44.804;10.220;2023-03-12T12:33:57;17.20;99.90
58469;DHT22;44257;44.804;10.220;2023-03-12T12:36:30;17.30;99.90
58469;DHT22;44257;44.804;10.220;2023-03-12T12:39:05;17.40;99.90
58469;DHT22;44257;44.804;10.220;2023-03-12T12:41:36;17.50;99.90
58469;DHT22;44257;44.804;10.220;2023-03-12T12:44:11;17.50;99.90
58469;DHT22;44257;44.804;10.220;2023-03-12T12:46:42;17.60;99.90
58469;DHT22;44257;44.804;10.220;2023-03-12T12:49:12;17.70;99.90
58469;DHT22;44257;44.804;10.220;2023-03-12T12:51:49;17.70;99.90
58469;DHT22;44257;44.804;10.220;2023-03-12T13:02:23;17.90;99.90
58469;DHT22;44257;44.804;10.220;2023-03-12T13:04:56;18.00;99.90
58469;DHT22;44257;44.804;10.220;2023-03-12T13:09:50;17.90;99.90
58469;DHT22;44257;44.804;10.220;2023-03-12T13:12:35;17.90;99.90
58469;DHT22;44257;44.804;10.220;2023-03-12T13:15:32;17.90;99.90
58469;DHT22;44257;44.804;10.220;2023-03-12T13:26:07;18.10;99.90
58469;DHT22;44257;44.804;10.220;2023-03-12T13:29:01;18.10;99.90
58469;DHT22;44257;44.804;10.220;2023-03-12T13:31:37;18.10;99.90
58469;DHT22;44257;44.804;10.220;2023-03-12T13:36:57;18.10;99.90
58469;DHT22;44257;44.804;10.220;2023-03-12T13:39:34;18.10;99.90
58469;DHT22;44257;44.804;10.220;2023-03-12T13:44:51;18.40;99.90
58469;DHT22;44257;44.804;10.220;2023-03-12T13:47:44;18.40;99.90
58469;DHT22;44257;44.804;10.220;2023-03-12T13:50:15;18.40;99.90
58469;DHT22;44257;44.804;10.220;2023-03-12T13:52:47;18.40;99.90
58469;DHT22;44257;44.804;10.220;2023-03-12T13:55:25;18.50;99.90
58469;DHT22;44257;44.804;10.220;2023-03-12T13:58:12;18.50;99.90
58469;DHT22;44257;44.804;10.220;2023-03-12T14:01:03;18.40;99.90
58469;DHT22;44257;44.804;10.220;2023-03-12T14:03:40;18.40;99.90
58469;DHT22;44257;44.804;10.220;2023-03-12T14:06:11;18.50;99.90
58469;DHT22;44257;44.804;10.220;2023-03-12T14:09:05;18.60;99.90
58469;DHT22;44257;44.804;10.220;2023-03-12T14:11:46;18.60;99.90
58469;DHT22;44257;44.804;10.220;2023-03-12T14:17:19;18.70;99.90
58469;DHT22;44257;44.804;10.220;2023-03-12T14:19:49;18.90;99.90
58469;DHT22;44257;44.804;10.220;2023-03-12T14:22:17;19.00;99.90
58469;DHT22;44257;44.804;10.220;2023-03-12T14:24:53;19.00;99.90
58469;DHT22;44257;44.804;10.220;2023-03-12T14:27:28;19.10;99.90
58469;DHT22;44257;44.804;10.220;2023-03-12T14:30:03;19.20;99.90
58469;DHT22;44257;44.804;10.220;2023-03-12T14:32:33;19.10;99.90
58469;DHT22;44257;44.804;10.220;2023-03-12T14:37:57;18.50;99.90
58469;DHT22;44257;44.804;10.220;2023-03-12T14:42:59;18.40;99.90
58469;DHT22;44257;44.804;10.220;2023-03-12T14:45:26;18.40;99.90
58469;DHT22;44257;44.804;10.220;2023-03-12T14:47:55;18.60;99.90
58469;DHT22;44257;44.804;10.220;2023-03-12T14:50:27;18.70;99.90
58469;DHT22;44257;44.804;10.220;2023-03-12T14:52:55;18.70;99.90
58469;DHT22;44257;44.804;10.220;2023-03-12T14:55:34;18.70;99.90
58469;DHT22;44257;44.804;10.220;2023-03-12T14:58:05;18.60;99.90
58469;DHT22;44257;44.804;10.220;2023-03-12T15:00:38;18.70;99.90
58469;DHT22;44257;44.804;10.220;2023-03-12T15:03:12;18.70;99.90
58469;DHT22;44257;44.804;10.220;2023-03-12T15:05:47;18.60;99.90
58469;DHT22;44257;44.804;10.220;2023-03-12T15:08:13;18.70;99.90
58469;DHT22;44257;44.804;10.220;2023-03-12T15:10:47;18.60;99.90
58469;DHT22;44257;44.804;10.220;2023-03-12T15:13:15;18.60;99.90
58469;DHT22;44257;44.804;10.220;2023-03-12T15:15:45;18.50;99.90
58469;DHT22;44257;44.804;10.220;2023-03-12T15:18:28;18.50;99.90
58469;DHT22;44257;44.804;10.220;2023-03-12T15:20:56;18.40;99.90
58469;DHT22;44257;44.804;10.220;2023-03-12T15:23:24;18.50;99.90
58469;DHT22;44257;44.804;10.220;2023-03-12T15:26:12;18.50;99.90
58469;DHT22;44257;44.804;10.220;2023-03-12T15:28:38;18.40;99.90
58469;DHT22;44257;44.804;10.220;2023-03-12T15:31:15;18.40;99.90
58469;DHT22;44257;44.804;10.220;2023-03-12T15:33:44;18.30;99.90
58469;DHT22;44257;44.804;10.220;2023-03-12T15:36:26;18.30;99.90
58469;DHT22;44257;44.804;10.220;2023-03-12T15:38:59;18.20;99.90
58469;DHT22;44257;44.804;10.220;2023-03-12T15:41:40;18.10;99.90
58469;DHT22;44257;44.804;10.220;2023-03-12T15:44:23;18.10;99.90
58469;DHT22;44257;44.804;10.220;2023-03-12T15:50:16;18.00;99.90
58469;DHT22;44257;44.804;10.220;2023-03-12T15:52:58;17.80;99.90
58469;DHT22;44257;44.804;10.220;2023-03-12T15:55:31;17.70;99.90
58469;DHT22;44257;44.804;10.220;2023-03-12T15:57:58;17.70;99.90
58469;DHT22;44257;44.804;10.220;2023-03-12T16:00:43;17.60;99.90
58469;DHT22;44257;44.804;10.220;2023-03-12T16:03:19;17.50;99.90
58469;DHT22;44257;44.804;10.220;2023-03-12T16:05:47;17.40;99.90
58469;DHT22;44257;44.804;10.220;2023-03-12T16:08:15;17.20;99.90
58469;DHT22;44257;44.804;10.220;2023-03-12T16:10:43;17.20;99.90
58469;DHT22;44257;44.804;10.220;2023-03-12T16:13:13;17.10;99.90
58469;DHT22;44257;44.804;10.220;2023-03-12T16:15:40;16.90;99.90
58469;DHT22;44257;44.804;10.220;2023-03-12T16:18:12;16.80;99.90
58469;DHT22;44257;44.804;10.220;2023-03-12T16:20:39;16.70;99.90
58469;DHT22;44257;44.804;10.220;2023-03-12T16:23:05;16.60;99.90
58469;DHT22;44257;44.804;10.220;2023-03-12T16:25:32;16.50;99.90
58469;DHT22;44257;44.804;10.220;2023-03-12T16:28:01;16.40;99.90
58469;DHT22;44257;44.804;10.220;2023-03-12T16:30:29;16.30;99.90
58469;DHT22;44257;44.804;10.220;2023-03-12T16:32:57;16.10;99.90
58469;DHT22;44257;44.804;10.220;2023-03-12T16:35:24;16.10;99.90
58469;DHT22;44257;44.804;10.220;2023-03-12T16:37:51;16.00;99.90
58469;DHT22;44257;44.804;10.220;2023-03-12T16:40:18;15.90;99.90
58469;DHT22;44257;44.804;10.220;2023-03-12T16:42:46;15.80;99.90
58469;DHT22;44257;44.804;10.220;2023-03-12T16:45:14;15.70;99.90
58469;DHT22;44257;44.804;10.220;2023-03-12T16:47:41;15.60;99.90
58469;DHT22;44257;44.804;10.220;2023-03-12T16:50:20;15.40;99.90
58469;DHT22;44257;44.804;10.220;2023-03-12T16:52:46;15.30;99.90
58469;DHT22;44257;44.804;10.220;2023-03-12T16:55:13;15.10;99.90
58469;DHT22;44257;44.804;10.220;2023-03-12T16:57:43;15.00;99.90
58469;DHT22;44257;44.804;10.220;2023-03-12T17:00:13;14.80;99.90
58469;DHT22;44257;44.804;10.220;2023-03-12T17:02:39;14.70;99.90
58469;DHT22;44257;44.804;10.220;2023-03-12T17:05:06;14.60;99.90
58469;DHT22;44257;44.804;10.220;2023-03-12T17:07:31;14.40;99.90
58469;DHT22;44257;44.804;10.220;2023-03-12T17:09:57;14.30;99.90
58469;DHT22;44257;44.804;10.220;2023-03-12T17:14:49;14.00;99.90
58469;DHT22;44257;44.804;10.220;2023-03-12T17:17:16;13.90;99.90
58469;DHT22;44257;44.804;10.220;2023-03-12T17:19:42;13.70;99.90
58469;DHT22;44257;44.804;10.220;2023-03-12T17:22:08;13.60;99.90
58469;DHT22;44257;44.804;10.220;2023-03-12T17:24:33;13.40;99.90
58469;DHT22;44257;44.804;10.220;2023-03-12T17:26:59;13.40;99.90
58469;DHT22;44257;44.804;10.220;2023-03-12T17:29:25;13.20;99.90
58469;DHT22;44257;44.804;10.220;2023-03-12T17:31:51;13.10;99.90
58469;DHT22;44257;44.804;10.220;2023-03-12T17:34:17;12.90;99.90
58469;DHT22;44257;44.804;10.220;2023-03-12T17:36:43;12.70;99.90
58469;DHT22;44257;44.804;10.220;2023-03-12T17:39:09;12.60;99.90